sensor_id;sensor_type;location;lat;lon;timestamp;temperature;humidity
49132;DHT22;35149;51.196;6.204;2023-03-08T00:01:51;5.40;74.80
49132;DHT22;35149;51.196;6.204;2023-03-08T00:04:20;5.40;74.30
49132;DHT22;35149;51.196;6.204;2023-03-08T00:06:46;5.40;74.30
49132;DHT22;35149;51.196;6.204;2023-03-08T00:09:15;5.40;74.40
49132;DHT22;35149;51.196;6.204;2023-03-08T00:11:48;5.30;74.40
49132;DHT22;35149;51.196;6.204;2023-03-08T00:14:23;5.40;74.60
49132;DHT22;35149;51.196;6.204;2023-03-08T00:16:59;5.40;74.60
49132;DHT22;35149;51.196;6.204;2023-03-08T00:19:29;5.40;74.50
49132;DHT22;35149;51.196;6.204;2023-03-08T00:21:55;5.40;74.50
49132;DHT22;35149;51.196;6.204;2023-03-08T00:24:22;5.40;74.60
49132;DHT22;35149;51.196;6.204;2023-03-08T00:26:51;5.40;74.60
49132;DHT22;35149;51.196;6.204;2023-03-08T00:29:23;5.40;74.50
49132;DHT22;35149;51.196;6.204;2023-03-08T00:31:58;5.40;74.60
49132;DHT22;35149;51.196;6.204;2023-03-08T00:34:25;5.40;74.60
49132;DHT22;35149;51.196;6.204;2023-03-08T00:36:51;5.40;74.60
49132;DHT22;35149;51.196;6.204;2023-03-08T00:39:18;5.40;74.70
49132;DHT22;35149;51.196;6.204;2023-03-08T00:41:49;5.40;74.70
49132;DHT22;35149;51.196;6.204;2023-03-08T00:44:16;5.40;74.70
49132;DHT22;35149;51.196;6.204;2023-03-08T00:46:42;5.40;74.70
49132;DHT22;35149;51.196;6.204;2023-03-08T00:49:18;5.40;74.80
49132;DHT22;35149;51.196;6.204;2023-03-08T00:51:49;5.40;74.80
49132;DHT22;35149;51.196;6.204;2023-03-08T00:54:23;5.40;74.80
49132;DHT22;35149;51.196;6.204;2023-03-08T00:56:50;5.50;74.80
49132;DHT22;35149;51.196;6.204;2023-03-08T00:59:23;5.50;74.60
49132;DHT22;35149;51.196;6.204;2023-03-08T01:01:51;5.50;75.30
49132;DHT22;35149;51.196;6.204;2023-03-08T01:04:20;5.50;74.60
49132;DHT22;35149;51.196;6.204;2023-03-08T01:06:52;5.40;74.60
49132;DHT22;35149;51.196;6.204;2023-03-08T01:09:18;5.50;74.70
49132;DHT22;35149;51.196;6.204;2023-03-08T01:11:47;5.50;74.80
49132;DHT22;35149;51.196;6.204;2023-03-08T01:14:24;5.50;74.70
49132;DHT22;35149;51.196;6.204;2023-03-08T01:16:57;5.50;74.70
49132;DHT22;35149;51.196;6.204;2023-03-08T01:19:28;5.50;74.60
49132;DHT22;35149;51.196;6.204;2023-03-08T01:22:00;5.50;74.60
49132;DHT22;35149;51.196;6.204;2023-03-08T01:24:27;5.50;74.50
49132;DHT22;35149;51.196;6.204;2023-03-08T01:27:06;5.50;74.60
49132;DHT22;35149;51.196;6.204;2023-03-08T01:29:32;5.50;74.60
49132;DHT22;35149;51.196;6.204;2023-03-08T01:32:02;5.50;74.60
49132;DHT22;35149;51.196;6.204;2023-03-08T01:34:29;5.50;74.70
49132;DHT22;35149;51.196;6.204;2023-03-08T01:36:59;5.50;74.80
49132;DHT22;35149;51.196;6.204;2023-03-08T01:39:26;5.50;74.80
49132;DHT22;35149;51.196;6.204;2023-03-08T01:41:56;5.50;74.70
49132;DHT22;35149;51.196;6.204;2023-03-08T01:44:26;5.50;74.80
49132;DHT22;35149;51.196;6.204;2023-03-08T01:46:55;5.50;74.80
49132;DHT22;35149;51.196;6.204;2023-03-08T01:49:29;5.50;74.90
49132;DHT22;35149;51.196;6.204;2023-03-08T01:52:08;5.60;75.00
49132;DHT22;35149;51.196;6.204;2023-03-08T01:54:43;5.60;75.10
49132;DHT22;35149;51.196;6.204;2023-03-08T01:59:57;5.60;75.20
49132;DHT22;35149;51.196;6.204;2023-03-08T02:02:47;5.60;75.00
49132;DHT22;35149;51.196;6.204;2023-03-08T02:05:21;5.60;74.90
49132;DHT22;35149;51.196;6.204;2023-03-08T02:07:58;5.60;74.90
49132;DHT22;35149;51.196;6.204;2023-03-08T02:10:29;5.60;74.90
49132;DHT22;35149;51.196;6.204;2023-03-08T02:12:57;5.60;74.90
49132;DHT22;35149;51.196;6.204;2023-03-08T02:15:29;5.60;74.80
49132;DHT22;35149;51.196;6.204;2023-03-08T02:17:56;5.60;74.80
49132;DHT22;35149;51.196;6.204;2023-03-08T02:20:34;5.60;74.80
49132;DHT22;35149;51.196;6.204;2023-03-08T02:23:19;5.60;74.90
49132;DHT22;35149;51.196;6.204;2023-03-08T02:25:54;5.60;74.90
49132;DHT22;35149;51.196;6.204;2023-03-08T02:28:24;5.70;74.90
49132;DHT22;35149;51.196;6.204;2023-03-08T02:30:54;5.70;74.90
49132;DHT22;35149;51.196;6.204;2023-03-08T02:33:27;5.70;74.90
49132;DHT22;35149;51.196;6.204;2023-03-08T02:35:56;5.60;74.80
49132;DHT22;35149;51.196;6.204;2023-03-08T02:38:27;5.70;74.90
49132;DHT22;35149;51.196;6.204;2023-03-08T02:40:58;5.70;74.90
49132;DHT22;35149;51.196;6.204;2023-03-08T02:43:25;5.70;75.00
49132;DHT22;35149;51.196;6.204;2023-03-08T02:45:54;5.70;75.00
49132;DHT22;35149;51.196;6.204;2023-03-08T02:48:22;5.70;75.00
49132;DHT22;35149;51.196;6.204;2023-03-08T02:50:54;5.70;75.00
49132;DHT22;35149;51.196;6.204;2023-03-08T02:53:23;5.70;75.00
49132;DHT22;35149;51.196;6.204;2023-03-08T02:55:53;5.70;75.00
49132;DHT22;35149;51.196;6.204;2023-03-08T02:58:22;5.70;75.60
49132;DHT22;35149;51.196;6.204;2023-03-08T03:00:56;5.70;75.00
49132;DHT22;35149;51.196;6.204;2023-03-08T03:03:33;5.70;75.00
49132;DHT22;35149;51.196;6.204;2023-03-08T03:06:20;5.70;74.90
49132;DHT22;35149;51.196;6.204;2023-03-08T03:08:55;5.80;74.90
49132;DHT22;35149;51.196;6.204;2023-03-08T03:11:25;5.80;74.90
49132;DHT22;35149;51.196;6.204;2023-03-08T03:13:58;5.80;74.90
49132;DHT22;35149;51.196;6.204;2023-03-08T03:16:36;5.80;74.90
49132;DHT22;35149;51.196;6.204;2023-03-08T03:19:10;5.80;74.80
49132;DHT22;35149;51.196;6.204;2023-03-08T03:21:47;5.80;75.40
49132;DHT22;35149;51.196;6.204;2023-03-08T03:24:18;5.80;74.80
49132;DHT22;35149;51.196;6.204;2023-03-08T03:27:14;5.80;74.80
49132;DHT22;35149;51.196;6.204;2023-03-08T03:29:43;5.80;74.70
49132;DHT22;35149;51.196;6.204;2023-03-08T03:32:14;5.80;74.70
49132;DHT22;35149;51.196;6.204;2023-03-08T03:34:44;5.80;74.70
49132;DHT22;35149;51.196;6.204;2023-03-08T03:37:11;5.80;74.70
49132;DHT22;35149;51.196;6.204;2023-03-08T03:39:47;5.80;74.80
49132;DHT22;35149;51.196;6.204;2023-03-08T03:42:17;5.80;74.80
49132;DHT22;35149;51.196;6.204;2023-03-08T03:44:51;5.80;74.70
49132;DHT22;35149;51.196;6.204;2023-03-08T03:47:20;5.80;74.70
49132;DHT22;35149;51.196;6.204;2023-03-08T03:49:54;5.80;74.60
49132;DHT22;35149;51.196;6.204;2023-03-08T03:52:25;5.80;74.60
49132;DHT22;35149;51.196;6.204;2023-03-08T03:55:01;5.80;74.60
49132;DHT22;35149;51.196;6.204;2023-03-08T03:57:30;5.80;74.70
49132;DHT22;35149;51.196;6.204;2023-03-08T03:59:59;5.80;74.70
49132;DHT22;35149;51.196;6.204;2023-03-08T04:02:29;5.80;74.70
49132;DHT22;35149;51.196;6.204;2023-03-08T04:04:58;5.80;74.60
49132;DHT22;35149;51.196;6.204;2023-03-08T04:07:31;5.80;74.60
49132;DHT22;35149;51.196;6.204;2023-03-08T04:10:00;5.80;74.60
49132;DHT22;35149;51.196;6.204;2023-03-08T04:12:29;5.70;74.40
49132;DHT22;35149;51.196;6.204;2023-03-08T04:14:55;5.80;74.40
49132;DHT22;35149;51.196;6.204;2023-03-08T04:17:28;5.70;74.10
49132;DHT22;35149;51.196;6.204;2023-03-08T04:20:03;5.70;74.10
49132;DHT22;35149;51.196;6.204;2023-03-08T04:22:36;5.70;74.20
49132;DHT22;35149;51.196;6.204;2023-03-08T04:25:14;5.70;74.20
49132;DHT22;35149;51.196;6.204;2023-03-08T04:27:54;5.70;74.30
49132;DHT22;35149;51.196;6.204;2023-03-08T04:30:22;5.70;74.30
49132;DHT22;35149;51.196;6.204;2023-03-08T04:32:51;5.70;74.40
49132;DHT22;35149;51.196;6.204;2023-03-08T04:35:29;5.70;74.40
49132;DHT22;35149;51.196;6.204;2023-03-08T04:37:56;5.70;74.50
49132;DHT22;35149;51.196;6.204;2023-03-08T04:40:25;5.70;74.60
49132;DHT22;35149;51.196;6.204;2023-03-08T04:42:58;5.70;74.60
49132;DHT22;35149;51.196;6.204;2023-03-08T04:45:32;5.70;74.70
49132;DHT22;35149;51.196;6.204;2023-03-08T04:48:05;5.70;74.60
49132;DHT22;35149;51.196;6.204;2023-03-08T04:50:32;5.70;74.60
49132;DHT22;35149;51.196;6.204;2023-03-08T04:53:03;5.70;74.60
49132;DHT22;35149;51.196;6.204;2023-03-08T04:55:33;5.70;74.60
49132;DHT22;35149;51.196;6.204;2023-03-08T04:58:02;5.70;75.30
49132;DHT22;35149;51.196;6.204;2023-03-08T05:00:33;5.70;74.20
49132;DHT22;35149;51.196;6.204;2023-03-08T05:03:03;5.70;74.10
49132;DHT22;35149;51.196;6.204;2023-03-08T05:05:36;5.70;74.10
49132;DHT22;35149;51.196;6.204;2023-03-08T05:08:03;5.60;74.10
49132;DHT22;35149;51.196;6.204;2023-03-08T05:10:45;5.60;74.20
49132;DHT22;35149;51.196;6.204;2023-03-08T05:13:16;5.60;74.30
49132;DHT22;35149;51.196;6.204;2023-03-08T05:15:43;5.60;74.30
49132;DHT22;35149;51.196;6.204;2023-03-08T05:18:12;5.60;74.40
49132;DHT22;35149;51.196;6.204;2023-03-08T05:20:44;5.60;74.30
49132;DHT22;35149;51.196;6.204;2023-03-08T05:23:18;5.60;74.30
49132;DHT22;35149;51.196;6.204;2023-03-08T05:25:44;5.60;74.30
49132;DHT22;35149;51.196;6.204;2023-03-08T05:28:13;5.50;74.30
49132;DHT22;35149;51.196;6.204;2023-03-08T05:30:45;5.60;74.30
49132;DHT22;35149;51.196;6.204;2023-03-08T05:33:16;5.50;74.30
49132;DHT22;35149;51.196;6.204;2023-03-08T05:35:53;5.60;74.40
49132;DHT22;35149;51.196;6.204;2023-03-08T05:38:22;5.50;74.30
49132;DHT22;35149;51.196;6.204;2023-03-08T05:40:58;5.60;74.30
49132;DHT22;35149;51.196;6.204;2023-03-08T05:43:27;5.50;74.30
49132;DHT22;35149;51.196;6.204;2023-03-08T05:46:06;5.60;74.40
49132;DHT22;35149;51.196;6.204;2023-03-08T05:48:37;5.60;74.40
49132;DHT22;35149;51.196;6.204;2023-03-08T05:51:11;5.60;74.30
49132;DHT22;35149;51.196;6.204;2023-03-08T05:53:44;5.60;74.40
49132;DHT22;35149;51.196;6.204;2023-03-08T05:56:18;5.50;74.30
49132;DHT22;35149;51.196;6.204;2023-03-08T05:58:59;5.50;74.40
49132;DHT22;35149;51.196;6.204;2023-03-08T06:01:28;5.50;74.40
49132;DHT22;35149;51.196;6.204;2023-03-08T06:04:04;5.50;74.40
49132;DHT22;35149;51.196;6.204;2023-03-08T06:06:42;5.50;74.30
49132;DHT22;35149;51.196;6.204;2023-03-08T06:09:09;5.50;74.30
49132;DHT22;35149;51.196;6.204;2023-03-08T06:11:41;5.50;74.40
49132;DHT22;35149;51.196;6.204;2023-03-08T06:14:08;5.50;74.40
49132;DHT22;35149;51.196;6.204;2023-03-08T06:16:38;5.50;74.40
49132;DHT22;35149;51.196;6.204;2023-03-08T06:19:05;5.50;74.40
49132;DHT22;35149;51.196;6.204;2023-03-08T06:21:35;5.50;74.40
49132;DHT22;35149;51.196;6.204;2023-03-08T06:24:04;5.50;74.30
49132;DHT22;35149;51.196;6.204;2023-03-08T06:26:35;5.50;74.40
49132;DHT22;35149;51.196;6.204;2023-03-08T06:29:04;5.50;74.40
49132;DHT22;35149;51.196;6.204;2023-03-08T06:31:38;5.50;74.40
49132;DHT22;35149;51.196;6.204;2023-03-08T06:34:06;5.50;74.30
49132;DHT22;35149;51.196;6.204;2023-03-08T06:36:38;5.50;74.20
49132;DHT22;35149;51.196;6.204;2023-03-08T06:39:04;5.50;74.20
49132;DHT22;35149;51.196;6.204;2023-03-08T06:41:32;5.50;74.00
49132;DHT22;35149;51.196;6.204;2023-03-08T06:44:03;5.50;74.00
49132;DHT22;35149;51.196;6.204;2023-03-08T06:46:30;5.40;74.00
49132;DHT22;35149;51.196;6.204;2023-03-08T06:49:03;5.40;74.00
49132;DHT22;35149;51.196;6.204;2023-03-08T06:51:40;5.50;74.10
49132;DHT22;35149;51.196;6.204;2023-03-08T06:54:19;5.40;74.00
49132;DHT22;35149;51.196;6.204;2023-03-08T06:56:47;5.40;74.00
49132;DHT22;35149;51.196;6.204;2023-03-08T06:59:14;5.40;74.10
49132;DHT22;35149;51.196;6.204;2023-03-08T07:01:42;5.40;74.10
49132;DHT22;35149;51.196;6.204;2023-03-08T07:04:12;5.40;74.20
49132;DHT22;35149;51.196;6.204;2023-03-08T07:06:38;5.40;74.30
49132;DHT22;35149;51.196;6.204;2023-03-08T07:09:05;5.40;74.20
49132;DHT22;35149;51.196;6.204;2023-03-08T07:11:32;5.40;74.20
49132;DHT22;35149;51.196;6.204;2023-03-08T07:14:00;5.40;74.30
49132;DHT22;35149;51.196;6.204;2023-03-08T07:16:28;5.40;74.30
49132;DHT22;35149;51.196;6.204;2023-03-08T07:18:56;5.40;74.30
49132;DHT22;35149;51.196;6.204;2023-03-08T07:21:23;5.40;74.50
49132;DHT22;35149;51.196;6.204;2023-03-08T07:23:54;5.40;74.50
49132;DHT22;35149;51.196;6.204;2023-03-08T07:26:21;5.40;74.60
49132;DHT22;35149;51.196;6.204;2023-03-08T07:28:54;5.40;74.60
49132;DHT22;35149;51.196;6.204;2023-03-08T07:31:23;5.50;74.80
49132;DHT22;35149;51.196;6.204;2023-03-08T07:33:54;5.50;74.60
49132;DHT22;35149;51.196;6.204;2023-03-08T07:36:21;5.50;74.50
49132;DHT22;35149;51.196;6.204;2023-03-08T07:38:47;5.50;74.50
49132;DHT22;35149;51.196;6.204;2023-03-08T07:41:22;5.50;74.50
49132;DHT22;35149;51.196;6.204;2023-03-08T07:43:49;5.60;74.30
49132;DHT22;35149;51.196;6.204;2023-03-08T07:46:18;5.60;74.30
49132;DHT22;35149;51.196;6.204;2023-03-08T07:48:56;5.60;74.30
49132;DHT22;35149;51.196;6.204;2023-03-08T07:51:24;5.50;74.40
49132;DHT22;35149;51.196;6.204;2023-03-08T07:53:54;5.60;74.40
49132;DHT22;35149;51.196;6.204;2023-03-08T07:56:26;5.60;74.40
49132;DHT22;35149;51.196;6.204;2023-03-08T07:58:56;5.60;74.20
49132;DHT22;35149;51.196;6.204;2023-03-08T08:01:23;5.60;74.20
49132;DHT22;35149;51.196;6.204;2023-03-08T08:03:55;5.60;74.00
49132;DHT22;35149;51.196;6.204;2023-03-08T08:06:22;5.60;73.90
49132;DHT22;35149;51.196;6.204;2023-03-08T08:08:58;5.60;74.00
49132;DHT22;35149;51.196;6.204;2023-03-08T08:11:33;5.60;74.00
49132;DHT22;35149;51.196;6.204;2023-03-08T08:14:01;5.60;74.00
49132;DHT22;35149;51.196;6.204;2023-03-08T08:16:32;5.60;74.00
49132;DHT22;35149;51.196;6.204;2023-03-08T08:19:00;5.60;74.10
49132;DHT22;35149;51.196;6.204;2023-03-08T08:21:27;5.60;74.20
49132;DHT22;35149;51.196;6.204;2023-03-08T08:24:00;5.60;74.10
49132;DHT22;35149;51.196;6.204;2023-03-08T08:26:32;5.60;74.00
49132;DHT22;35149;51.196;6.204;2023-03-08T08:29:02;5.60;73.80
49132;DHT22;35149;51.196;6.204;2023-03-08T08:31:29;5.60;74.00
49132;DHT22;35149;51.196;6.204;2023-03-08T08:33:58;5.60;74.20
49132;DHT22;35149;51.196;6.204;2023-03-08T08:36:27;5.60;74.30
49132;DHT22;35149;51.196;6.204;2023-03-08T08:38:54;5.60;74.30
49132;DHT22;35149;51.196;6.204;2023-03-08T08:41:30;5.60;74.40
49132;DHT22;35149;51.196;6.204;2023-03-08T08:43:59;5.70;74.30
49132;DHT22;35149;51.196;6.204;2023-03-08T08:46:33;5.70;74.10
49132;DHT22;35149;51.196;6.204;2023-03-08T08:49:10;5.70;74.20
49132;DHT22;35149;51.196;6.204;2023-03-08T08:51:36;5.70;74.10
49132;DHT22;35149;51.196;6.204;2023-03-08T08:54:03;5.70;74.10
49132;DHT22;35149;51.196;6.204;2023-03-08T08:56:32;5.70;74.00
49132;DHT22;35149;51.196;6.204;2023-03-08T08:59:07;5.70;74.00
49132;DHT22;35149;51.196;6.204;2023-03-08T09:01:35;5.80;74.00
49132;DHT22;35149;51.196;6.204;2023-03-08T09:04:05;5.80;74.10
49132;DHT22;35149;51.196;6.204;2023-03-08T09:06:34;5.90;74.30
49132;DHT22;35149;51.196;6.204;2023-03-08T09:09:00;5.90;74.10
49132;DHT22;35149;51.196;6.204;2023-03-08T09:11:32;5.90;74.20
49132;DHT22;35149;51.196;6.204;2023-03-08T09:14:01;5.90;74.50
49132;DHT22;35149;51.196;6.204;2023-03-08T09:16:32;6.00;74.60
49132;DHT22;35149;51.196;6.204;2023-03-08T09:19:03;6.10;74.40
49132;DHT22;35149;51.196;6.204;2023-03-08T09:21:33;6.10;74.20
49132;DHT22;35149;51.196;6.204;2023-03-08T09:24:11;6.20;74.30
49132;DHT22;35149;51.196;6.204;2023-03-08T09:26:47;6.20;74.40
49132;DHT22;35149;51.196;6.204;2023-03-08T09:29:23;6.30;74.10
49132;DHT22;35149;51.196;6.204;2023-03-08T09:31:49;6.30;73.80
49132;DHT22;35149;51.196;6.204;2023-03-08T09:34:20;6.40;73.50
49132;DHT22;35149;51.196;6.204;2023-03-08T09:36:52;6.40;73.40
49132;DHT22;35149;51.196;6.204;2023-03-08T09:39:27;6.40;73.20
49132;DHT22;35149;51.196;6.204;2023-03-08T09:41:59;6.40;73.00
49132;DHT22;35149;51.196;6.204;2023-03-08T09:47:25;6.40;73.10
49132;DHT22;35149;51.196;6.204;2023-03-08T09:50:01;6.50;72.90
49132;DHT22;35149;51.196;6.204;2023-03-08T09:52:42;6.50;72.80
49132;DHT22;35149;51.196;6.204;2023-03-08T09:58:10;6.60;72.70
49132;DHT22;35149;51.196;6.204;2023-03-08T10:00:45;6.60;72.90
49132;DHT22;35149;51.196;6.204;2023-03-08T10:03:38;6.70;72.80
49132;DHT22;35149;51.196;6.204;2023-03-08T10:08:57;6.80;73.10
49132;DHT22;35149;51.196;6.204;2023-03-08T10:11:35;6.90;72.80
49132;DHT22;35149;51.196;6.204;2023-03-08T10:14:18;7.00;72.60
49132;DHT22;35149;51.196;6.204;2023-03-08T10:17:20;7.10;72.80
49132;DHT22;35149;51.196;6.204;2023-03-08T10:20:03;7.10;71.90
49132;DHT22;35149;51.196;6.204;2023-03-08T10:22:36;7.20;72.10
49132;DHT22;35149;51.196;6.204;2023-03-08T10:25:30;7.30;72.00
49132;DHT22;35149;51.196;6.204;2023-03-08T10:28:04;7.40;71.60
49132;DHT22;35149;51.196;6.204;2023-03-08T10:30:37;7.40;72.00
49132;DHT22;35149;51.196;6.204;2023-03-08T10:33:09;7.50;71.90
49132;DHT22;35149;51.196;6.204;2023-03-08T10:35:56;7.50;71.80
49132;DHT22;35149;51.196;6.204;2023-03-08T10:38:32;7.60;71.60
49132;DHT22;35149;51.196;6.204;2023-03-08T10:41:02;7.70;71.70
49132;DHT22;35149;51.196;6.204;2023-03-08T10:43:43;7.80;71.40
49132;DHT22;35149;51.196;6.204;2023-03-08T10:46:17;7.80;71.20
49132;DHT22;35149;51.196;6.204;2023-03-08T10:48:44;7.80;71.10
49132;DHT22;35149;51.196;6.204;2023-03-08T10:54:00;7.90;71.20
49132;DHT22;35149;51.196;6.204;2023-03-08T10:56:59;8.10;71.50
49132;DHT22;35149;51.196;6.204;2023-03-08T10:59:32;8.20;70.90
49132;DHT22;35149;51.196;6.204;2023-03-08T11:04:57;8.40;70.50
49132;DHT22;35149;51.196;6.204;2023-03-08T11:07:29;8.50;69.30
49132;DHT22;35149;51.196;6.204;2023-03-08T11:10:03;8.60;69.90
49132;DHT22;35149;51.196;6.204;2023-03-08T11:12:30;8.70;69.90
49132;DHT22;35149;51.196;6.204;2023-03-08T11:14:57;8.70;70.00
49132;DHT22;35149;51.196;6.204;2023-03-08T11:17:34;8.80;69.60
49132;DHT22;35149;51.196;6.204;2023-03-08T11:20:13;8.80;68.90
49132;DHT22;35149;51.196;6.204;2023-03-08T11:26:06;9.00;68.80
49132;DHT22;35149;51.196;6.204;2023-03-08T11:31:54;9.10;68.10
49132;DHT22;35149;51.196;6.204;2023-03-08T11:48:38;9.40;67.20
49132;DHT22;35149;51.196;6.204;2023-03-08T11:51:31;9.40;66.50
49132;DHT22;35149;51.196;6.204;2023-03-08T11:54:33;9.40;66.50
49132;DHT22;35149;51.196;6.204;2023-03-08T11:57:08;9.40;66.90
49132;DHT22;35149;51.196;6.204;2023-03-08T11:59:42;9.30;66.70
49132;DHT22;35149;51.196;6.204;2023-03-08T12:02:22;9.30;66.80
49132;DHT22;35149;51.196;6.204;2023-03-08T12:05:28;9.30;66.60
49132;DHT22;35149;51.196;6.204;2023-03-08T12:08:09;9.30;65.70
49132;DHT22;35149;51.196;6.204;2023-03-08T12:10:54;9.30;65.90
49132;DHT22;35149;51.196;6.204;2023-03-08T12:13:40;9.20;65.90
49132;DHT22;35149;51.196;6.204;2023-03-08T12:16:41;9.20;66.10
49132;DHT22;35149;51.196;6.204;2023-03-08T12:21:45;9.10;66.30
49132;DHT22;35149;51.196;6.204;2023-03-08T12:32:54;8.80;66.30
49132;DHT22;35149;51.196;6.204;2023-03-08T12:38:27;8.70;66.50
49132;DHT22;35149;51.196;6.204;2023-03-08T12:40:59;8.60;66.00
49132;DHT22;35149;51.196;6.204;2023-03-08T12:43:37;8.60;66.80
49132;DHT22;35149;51.196;6.204;2023-03-08T12:46:09;8.60;67.30
49132;DHT22;35149;51.196;6.204;2023-03-08T12:51:20;8.50;67.30
49132;DHT22;35149;51.196;6.204;2023-03-08T12:56:29;8.50;67.50
49132;DHT22;35149;51.196;6.204;2023-03-08T13:04:45;8.50;67.50
49132;DHT22;35149;51.196;6.204;2023-03-08T13:07:24;8.50;67.60
49132;DHT22;35149;51.196;6.204;2023-03-08T13:12:39;8.50;67.50
49132;DHT22;35149;51.196;6.204;2023-03-08T13:17:46;8.40;67.20
49132;DHT22;35149;51.196;6.204;2023-03-08T13:20:24;8.40;67.30
49132;DHT22;35149;51.196;6.204;2023-03-08T13:23:03;8.40;67.20
49132;DHT22;35149;51.196;6.204;2023-03-08T13:28:05;8.30;67.40
49132;DHT22;35149;51.196;6.204;2023-03-08T13:30:37;8.30;67.50
49132;DHT22;35149;51.196;6.204;2023-03-08T13:33:14;8.30;67.60
49132;DHT22;35149;51.196;6.204;2023-03-08T13:35:53;8.30;67.60
49132;DHT22;35149;51.196;6.204;2023-03-08T13:38:24;8.30;67.30
49132;DHT22;35149;51.196;6.204;2023-03-08T13:40:54;8.30;67.80
49132;DHT22;35149;51.196;6.204;2023-03-08T13:43:24;8.30;68.00
49132;DHT22;35149;51.196;6.204;2023-03-08T13:46:02;8.40;68.10
49132;DHT22;35149;51.196;6.204;2023-03-08T13:48:32;8.40;67.80
49132;DHT22;35149;51.196;6.204;2023-03-08T13:51:01;8.40;67.60
49132;DHT22;35149;51.196;6.204;2023-03-08T13:53:35;8.40;67.50
49132;DHT22;35149;51.196;6.204;2023-03-08T13:56:05;8.40;67.30
49132;DHT22;35149;51.196;6.204;2023-03-08T13:58:45;8.40;67.30
49132;DHT22;35149;51.196;6.204;2023-03-08T14:01:22;8.30;67.30
49132;DHT22;35149;51.196;6.204;2023-03-08T14:03:54;8.30;67.10
49132;DHT22;35149;51.196;6.204;2023-03-08T14:06:31;8.30;67.20
49132;DHT22;35149;51.196;6.204;2023-03-08T14:09:09;8.30;67.50
49132;DHT22;35149;51.196;6.204;2023-03-08T14:11:40;8.20;67.60
49132;DHT22;35149;51.196;6.204;2023-03-08T14:14:19;8.20;67.50
49132;DHT22;35149;51.196;6.204;2023-03-08T14:16:57;8.20;67.50
49132;DHT22;35149;51.196;6.204;2023-03-08T14:19:34;8.30;67.60
49132;DHT22;35149;51.196;6.204;2023-03-08T14:22:13;8.20;67.90
49132;DHT22;35149;51.196;6.204;2023-03-08T14:24:51;8.20;68.00
49132;DHT22;35149;51.196;6.204;2023-03-08T14:29:47;8.10;67.70
49132;DHT22;35149;51.196;6.204;2023-03-08T14:35:21;8.10;68.00
49132;DHT22;35149;51.196;6.204;2023-03-08T14:37:54;8.10;67.80
49132;DHT22;35149;51.196;6.204;2023-03-08T14:40:33;8.10;68.00
49132;DHT22;35149;51.196;6.204;2023-03-08T14:43:12;8.00;67.80
49132;DHT22;35149;51.196;6.204;2023-03-08T14:45:55;8.00;67.80
49132;DHT22;35149;51.196;6.204;2023-03-08T14:48:36;8.00;67.60
49132;DHT22;35149;51.196;6.204;2023-03-08T14:53:43;8.00;67.70
49132;DHT22;35149;51.196;6.204;2023-03-08T14:56:20;8.00;68.00
49132;DHT22;35149;51.196;6.204;2023-03-08T14:58:47;7.90;67.90
49132;DHT22;35149;51.196;6.204;2023-03-08T15:01:30;7.90;68.00
49132;DHT22;35149;51.196;6.204;2023-03-08T15:04:05;7.90;68.20
49132;DHT22;35149;51.196;6.204;2023-03-08T15:06:40;7.80;68.30
49132;DHT22;35149;51.196;6.204;2023-03-08T15:09:07;7.80;68.50
49132;DHT22;35149;51.196;6.204;2023-03-08T15:11:34;7.80;68.60
49132;DHT22;35149;51.196;6.204;2023-03-08T15:14:04;7.90;68.70
49132;DHT22;35149;51.196;6.204;2023-03-08T15:16:33;7.80;68.70
49132;DHT22;35149;51.196;6.204;2023-03-08T15:19:02;7.80;68.70
49132;DHT22;35149;51.196;6.204;2023-03-08T15:21:29;7.80;68.80
49132;DHT22;35149;51.196;6.204;2023-03-08T15:23:59;7.80;68.70
49132;DHT22;35149;51.196;6.204;2023-03-08T15:26:34;7.80;69.20
49132;DHT22;35149;51.196;6.204;2023-03-08T15:29:03;7.70;68.60
49132;DHT22;35149;51.196;6.204;2023-03-08T15:31:32;7.70;68.50
49132;DHT22;35149;51.196;6.204;2023-03-08T15:34:02;7.70;68.50
49132;DHT22;35149;51.196;6.204;2023-03-08T15:36:31;7.70;68.70
49132;DHT22;35149;51.196;6.204;2023-03-08T15:39:00;7.70;68.80
49132;DHT22;35149;51.196;6.204;2023-03-08T15:41:29;7.70;68.90
49132;DHT22;35149;51.196;6.204;2023-03-08T15:43:58;7.60;68.80
49132;DHT22;35149;51.196;6.204;2023-03-08T15:46:25;7.70;68.90
49132;DHT22;35149;51.196;6.204;2023-03-08T15:48:54;7.60;68.80
49132;DHT22;35149;51.196;6.204;2023-03-08T15:51:23;7.60;68.90
49132;DHT22;35149;51.196;6.204;2023-03-08T15:53:51;7.60;69.00
49132;DHT22;35149;51.196;6.204;2023-03-08T15:56:17;7.60;69.10
49132;DHT22;35149;51.196;6.204;2023-03-08T15:58:44;7.60;69.30
49132;DHT22;35149;51.196;6.204;2023-03-08T16:01:11;7.50;69.20
49132;DHT22;35149;51.196;6.204;2023-03-08T16:03:37;7.50;69.30
49132;DHT22;35149;51.196;6.204;2023-03-08T16:06:08;7.50;69.40
49132;DHT22;35149;51.196;6.204;2023-03-08T16:08:36;7.50;69.50
49132;DHT22;35149;51.196;6.204;2023-03-08T16:11:07;7.50;69.40
49132;DHT22;35149;51.196;6.204;2023-03-08T16:13:35;7.50;69.40
49132;DHT22;35149;51.196;6.204;2023-03-08T16:16:03;7.50;69.50
49132;DHT22;35149;51.196;6.204;2023-03-08T16:18:31;7.40;69.50
49132;DHT22;35149;51.196;6.204;2023-03-08T16:20:58;7.40;69.50
49132;DHT22;35149;51.196;6.204;2023-03-08T16:23:25;7.40;69.60
49132;DHT22;35149;51.196;6.204;2023-03-08T16:26:17;7.40;69.70
49132;DHT22;35149;51.196;6.204;2023-03-08T16:28:47;7.40;69.70
49132;DHT22;35149;51.196;6.204;2023-03-08T16:31:14;7.40;69.80
49132;DHT22;35149;51.196;6.204;2023-03-08T16:33:42;7.40;69.90
49132;DHT22;35149;51.196;6.204;2023-03-08T16:36:11;7.40;70.00
49132;DHT22;35149;51.196;6.204;2023-03-08T16:38:38;7.40;70.00
49132;DHT22;35149;51.196;6.204;2023-03-08T16:41:05;7.30;70.00
49132;DHT22;35149;51.196;6.204;2023-03-08T16:43:40;7.30;70.00
49132;DHT22;35149;51.196;6.204;2023-03-08T16:46:18;7.40;70.10
49132;DHT22;35149;51.196;6.204;2023-03-08T16:48:46;7.40;70.10
49132;DHT22;35149;51.196;6.204;2023-03-08T16:51:17;7.30;70.00
49132;DHT22;35149;51.196;6.204;2023-03-08T16:53:44;7.30;70.10
49132;DHT22;35149;51.196;6.204;2023-03-08T16:56:22;7.30;70.20
49132;DHT22;35149;51.196;6.204;2023-03-08T16:58:49;7.30;70.20
49132;DHT22;35149;51.196;6.204;2023-03-08T17:01:18;7.20;70.20
49132;DHT22;35149;51.196;6.204;2023-03-08T17:03:45;7.20;70.20
49132;DHT22;35149;51.196;6.204;2023-03-08T17:06:13;7.20;70.20
49132;DHT22;35149;51.196;6.204;2023-03-08T17:08:40;7.20;70.20
49132;DHT22;35149;51.196;6.204;2023-03-08T17:11:15;7.20;70.20
49132;DHT22;35149;51.196;6.204;2023-03-08T17:13:47;7.20;70.10
49132;DHT22;35149;51.196;6.204;2023-03-08T17:16:18;7.20;70.10
49132;DHT22;35149;51.196;6.204;2023-03-08T17:18:45;7.10;70.10
49132;DHT22;35149;51.196;6.204;2023-03-08T17:21:12;7.10;70.20
49132;DHT22;35149;51.196;6.204;2023-03-08T17:23:38;7.10;70.20
49132;DHT22;35149;51.196;6.204;2023-03-08T17:26:06;7.00;70.30
49132;DHT22;35149;51.196;6.204;2023-03-08T17:28:34;7.00;70.40
49132;DHT22;35149;51.196;6.204;2023-03-08T17:31:01;7.00;70.40
49132;DHT22;35149;51.196;6.204;2023-03-08T17:33:32;7.00;70.50
49132;DHT22;35149;51.196;6.204;2023-03-08T17:36:06;7.00;70.60